createdAt,value
2023-04-06T00:00:24.097Z,82.25
2023-04-06T00:02:28.837Z,81.89
2023-04-06T00:04:33.067Z,82.28
2023-04-06T00:06:37.295Z,82.17
2023-04-06T00:08:43.275Z,82.15
2023-04-06T00:10:47.452Z,82.45
2023-04-06T00:12:50.556Z,82.63
2023-04-06T00:14:54.634Z,83.00
2023-04-06T00:16:58.714Z,83.10
2023-04-06T00:19:03.055Z,83.08
2023-04-06T00:21:07.636Z,83.66
2023-04-06T00:23:11.558Z,84.19
2023-04-06T00:25:17.858Z,84.17
2023-04-06T00:27:22.263Z,84.32
2023-04-06T00:29:26.464Z,84.85
2023-04-06T00:31:30.921Z,85.45
2023-04-06T00:33:35.518Z,84.98
2023-04-06T00:35:40.212Z,86.18
2023-04-06T00:37:44.506Z,86.01
2023-04-06T00:39:48.757Z,86.25
2023-04-06T00:41:55.032Z,86.56
2023-04-06T00:44:00.975Z,86.37
2023-04-06T00:46:05.248Z,86.04
2023-04-06T00:48:10.242Z,86.44
2023-04-06T00:50:14.740Z,86.34
2023-04-06T00:52:19.056Z,86.46
2023-04-06T00:54:25.029Z,86.42
2023-04-06T00:56:29.698Z,86.28
2023-04-06T00:58:39.324Z,86.77
2023-04-06T01:00:45.781Z,86.57
2023-04-06T01:02:55.835Z,86.75
2023-04-06T01:05:05.374Z,86.96
2023-04-06T01:07:27.151Z,86.77
2023-04-06T01:09:43.225Z,87.22
2023-04-06T01:11:54.394Z,87.31
2023-04-06T01:14:06.856Z,87.75
2023-04-06T01:16:26.998Z,88.05
2023-04-06T01:18:51.318Z,88.00
2023-04-06T01:20:59.930Z,87.44
2023-04-06T01:23:06.907Z,87.35
2023-04-06T01:25:14.874Z,87.26
2023-04-06T01:27:27.730Z,86.98
2023-04-06T01:29:51.782Z,86.66
2023-04-06T01:32:10.569Z,86.49
2023-04-06T01:34:23.370Z,86.48
2023-04-06T01:36:27.958Z,86.14
2023-04-06T01:38:53.322Z,86.19
2023-04-06T01:41:01.479Z,85.79
2023-04-06T01:43:11.446Z,85.78
2023-04-06T01:45:30.475Z,85.18
2023-04-06T01:47:41.853Z,85.12
2023-04-06T01:49:46.027Z,85.32
2023-04-06T01:51:53.398Z,85.74
2023-04-06T01:53:59.710Z,85.94
2023-04-06T01:56:33.147Z,86.05
2023-04-06T01:58:46.391Z,86.05
2023-04-06T02:00:54.151Z,86.26
2023-04-06T02:02:58.893Z,86.16
2023-04-06T02:05:06.244Z,85.67
2023-04-06T02:07:11.518Z,85.80
2023-04-06T02:09:17.658Z,86.28
2023-04-06T02:11:21.889Z,86.69
2023-04-06T02:13:29.727Z,86.38
2023-04-06T02:15:33.854Z,86.78
2023-04-06T02:17:38.346Z,86.17
2023-04-06T02:19:42.572Z,86.04
2023-04-06T02:21:46.805Z,86.01
2023-04-06T02:23:51.052Z,86.35
2023-04-06T02:25:56.959Z,86.17
2023-04-06T02:28:01.498Z,86.76
2023-04-06T02:30:07.966Z,86.61
2023-04-06T02:32:12.245Z,86.62
2023-04-06T02:34:18.959Z,86.31
2023-04-06T02:36:27.445Z,86.50
2023-04-06T02:38:31.902Z,86.14
2023-04-06T02:40:38.544Z,86.55
2023-04-06T02:42:54.982Z,86.36
2023-04-06T02:45:06.829Z,85.71
2023-04-06T02:47:16.960Z,85.55
2023-04-06T02:49:25.858Z,85.98
2023-04-06T02:51:34.127Z,86.19
2023-04-06T02:53:51.154Z,85.63
2023-04-06T02:55:55.715Z,86.38
2023-04-06T02:58:05.800Z,86.20
2023-04-06T03:00:20.217Z,85.53
2023-04-06T03:02:24.668Z,86.25
2023-04-06T03:04:29.721Z,85.89
2023-04-06T03:06:35.435Z,86.34
2023-04-06T03:08:48.512Z,86.20
2023-04-06T03:10:52.587Z,86.74
2023-04-06T03:12:56.365Z,86.36
2023-04-06T03:15:06.288Z,86.82
2023-04-06T03:17:10.690Z,86.65
2023-04-06T03:19:15.297Z,86.77
2023-04-06T03:21:20.439Z,86.79
2023-04-06T03:23:26.443Z,86.72
2023-04-06T03:25:34.977Z,87.43
2023-04-06T03:27:42.055Z,87.21
2023-04-06T03:29:49.677Z,87.67
2023-04-06T03:32:00.492Z,87.41
2023-04-06T03:34:11.618Z,87.84
2023-04-06T03:36:15.073Z,87.92
2023-04-06T03:38:20.463Z,87.78
2023-04-06T03:40:24.058Z,87.75
2023-04-06T03:42:27.914Z,88.44
2023-04-06T03:44:37.807Z,89.00
2023-04-06T03:46:43.132Z,88.52
2023-04-06T03:48:51.444Z,88.67
2023-04-06T03:50:57.578Z,88.80
2023-04-06T03:53:04.190Z,88.59
2023-04-06T03:55:09.313Z,89.58
2023-04-06T03:57:13.768Z,89.14
2023-04-06T03:59:17.450Z,89.27
2023-04-06T04:01:21.327Z,88.93
2023-04-06T04:03:28.238Z,88.89
2023-04-06T04:05:33.262Z,89.27
2023-04-06T04:07:36.802Z,89.28
2023-04-06T04:09:40.509Z,89.24
2023-04-06T04:11:44.235Z,89.86
2023-04-06T04:13:47.773Z,90.19
2023-04-06T04:15:51.217Z,90.41
2023-04-06T04:17:54.736Z,90.86
2023-04-06T04:19:58.214Z,90.97
2023-04-06T04:22:05.559Z,91.30
2023-04-06T04:24:11.654Z,90.74
2023-04-06T04:26:15.150Z,90.99
2023-04-06T04:28:22.054Z,90.86
2023-04-06T04:30:25.862Z,91.48
2023-04-06T04:32:29.372Z,90.97
2023-04-06T04:34:35.530Z,91.16
2023-04-06T04:36:42.693Z,90.51
2023-04-06T04:38:51.502Z,90.84
2023-04-06T04:40:54.951Z,90.45
2023-04-06T04:42:59.478Z,90.77
2023-04-06T04:45:10.149Z,91.05
2023-04-06T04:47:15.776Z,90.36
2023-04-06T04:49:23.165Z,90.96
2023-04-06T04:51:28.263Z,90.33
2023-04-06T04:53:42.912Z,90.12
2023-04-06T04:55:57.424Z,90.47
2023-04-06T04:58:04.528Z,90.42
2023-04-06T05:00:25.197Z,90.41
2023-04-06T05:02:33.073Z,90.24
2023-04-06T05:04:56.748Z,90.98
2023-04-06T05:07:09.884Z,90.79
2023-04-06T05:09:16.039Z,90.39
2023-04-06T05:11:22.330Z,91.25
2023-04-06T05:13:32.880Z,91.22
2023-04-06T05:15:43.524Z,90.65
2023-04-06T05:17:57.232Z,90.92
2023-04-06T05:20:08.670Z,90.67
2023-04-06T05:22:20.311Z,90.95
2023-04-06T05:24:31.384Z,90.55
2023-04-06T05:26:36.970Z,91.14
2023-04-06T05:28:46.663Z,90.73
2023-04-06T05:30:51.390Z,91.33
2023-04-06T05:32:56.034Z,91.42
2023-04-06T05:35:02.906Z,91.30
2023-04-06T05:37:06.816Z,90.93
2023-04-06T05:39:10.587Z,91.23
2023-04-06T05:41:23.496Z,91.13
2023-04-06T05:43:28.857Z,91.60
2023-04-06T05:45:36.088Z,91.14
2023-04-06T05:47:41.666Z,91.80
2023-04-06T05:49:56.110Z,91.62
2023-04-06T05:52:09.114Z,91.38
2023-04-06T05:54:13.355Z,91.86
2023-04-06T05:56:19.093Z,92.48
2023-04-06T05:58:23.760Z,92.97
2023-04-06T06:00:34.627Z,92.51
2023-04-06T06:02:43.786Z,92.30
2023-04-06T06:04:55.291Z,92.77
2023-04-06T06:07:05.454Z,93.30
2023-04-06T06:09:19.215Z,93.72
2023-04-06T06:11:34.230Z,94.10
2023-04-06T06:13:39.656Z,94.11
2023-04-06T06:15:45.242Z,95.04
2023-04-06T06:17:50.484Z,94.24
2023-04-06T06:19:55.158Z,94.66
2023-04-06T06:21:59.869Z,95.40
2023-04-06T06:24:04.355Z,95.70
2023-04-06T06:26:08.423Z,96.24
2023-04-06T06:28:12.045Z,95.70
2023-04-06T06:30:16.842Z,95.91
2023-04-06T06:32:23.755Z,96.77
2023-04-06T06:34:29.881Z,98.05
2023-04-06T06:36:36.576Z,97.97
2023-04-06T06:38:43.920Z,98.66
2023-04-06T06:40:48.921Z,98.85
2023-04-06T06:42:54.021Z,99.11
2023-04-06T06:45:21.942Z,99.73
2023-04-06T06:47:28.166Z,99.73
2023-04-06T06:49:32.183Z,99.73
2023-04-06T06:51:36.573Z,100.00
2023-04-06T06:53:41.068Z,100.00
2023-04-06T06:55:46.430Z,99.99
2023-04-06T06:57:51.008Z,100.00
2023-04-06T06:59:56.300Z,100.00
2023-04-06T07:02:01.266Z,100.00
2023-04-06T07:04:07.507Z,100.00
2023-04-06T07:06:12.164Z,100.00
2023-04-06T07:08:17.835Z,100.00
2023-04-06T07:10:21.870Z,100.00
2023-04-06T07:12:25.775Z,100.00
2023-04-06T07:14:29.997Z,100.00
2023-04-06T07:16:34.292Z,100.00
2023-04-06T07:18:38.493Z,100.00
2023-04-06T07:20:44.015Z,100.00
2023-04-06T07:22:48.102Z,99.78
2023-04-06T07:24:52.207Z,100.00
2023-04-06T07:26:56.995Z,100.00
2023-04-06T07:29:00.790Z,99.81
2023-04-06T07:31:04.887Z,100.00
2023-04-06T07:33:08.681Z,100.00
2023-04-06T07:35:13.960Z,99.79
2023-04-06T07:37:20.249Z,100.00
2023-04-06T07:39:24.607Z,100.00
2023-04-06T07:41:29.327Z,100.00
2023-04-06T07:43:33.756Z,100.00
2023-04-06T07:45:37.644Z,100.00
2023-04-06T07:47:41.654Z,100.00
2023-04-06T07:49:45.786Z,100.00
2023-04-06T07:51:50.014Z,100.00
2023-04-06T07:53:55.946Z,100.00
2023-04-06T07:56:00.760Z,100.00
2023-04-06T07:58:04.493Z,100.00
2023-04-06T08:00:10.652Z,100.00
2023-04-06T08:02:17.593Z,100.00
2023-04-06T08:04:22.903Z,100.00
2023-04-06T08:06:27.445Z,100.00
2023-04-06T08:08:31.998Z,100.00
2023-04-06T08:10:37.334Z,100.00
2023-04-06T08:12:41.196Z,100.00
2023-04-06T08:14:45.133Z,100.00
2023-04-06T08:16:49.258Z,100.00
2023-04-06T08:18:53.039Z,100.00
2023-04-06T08:20:58.119Z,100.00
2023-04-06T08:23:01.919Z,100.00
2023-04-06T08:25:07.357Z,100.00
2023-04-06T08:27:12.571Z,100.00
2023-04-06T08:29:17.647Z,100.00
2023-04-06T08:31:21.546Z,100.00
2023-04-06T08:33:25.787Z,100.00
2023-04-06T08:35:30.430Z,100.00
2023-04-06T08:37:34.851Z,100.00
2023-04-06T08:39:38.808Z,99.78
2023-04-06T08:41:45.137Z,100.00
2023-04-06T08:43:54.034Z,100.00
2023-04-06T08:46:00.519Z,100.00
2023-04-06T08:48:06.213Z,99.03
2023-04-06T08:50:12.460Z,99.03
2023-04-06T08:52:20.644Z,98.86
2023-04-06T08:54:25.597Z,97.46
2023-04-06T08:56:30.747Z,97.11
2023-04-06T08:58:38.794Z,96.42
2023-04-06T09:00:45.537Z,95.65
2023-04-06T09:02:52.092Z,95.20
2023-04-06T09:04:56.489Z,94.36
2023-04-06T09:07:00.906Z,93.94
2023-04-06T09:09:05.006Z,92.87
2023-04-06T09:11:10.090Z,91.98
2023-04-06T09:13:14.554Z,92.12
2023-04-06T09:15:24.322Z,91.21
2023-04-06T09:17:34.114Z,90.99
2023-04-06T09:19:48.052Z,89.80
2023-04-06T09:21:52.585Z,89.76
2023-04-06T09:24:02.434Z,89.70
2023-04-06T09:26:12.137Z,89.20
2023-04-06T09:28:16.073Z,88.33
2023-04-06T09:30:20.147Z,87.67
2023-04-06T09:32:24.564Z,87.09
2023-04-06T09:34:30.566Z,86.89
2023-04-06T09:36:34.990Z,86.39
2023-04-06T09:38:41.472Z,85.95
2023-04-06T09:43:01.271Z,84.89
2023-04-06T09:45:05.772Z,84.22
2023-04-06T09:47:10.673Z,84.02
2023-04-06T09:49:15.526Z,83.76
2023-04-06T09:51:21.880Z,83.58
2023-04-06T09:53:29.305Z,83.63
2023-04-06T09:55:37.778Z,82.44
2023-04-06T09:57:51.890Z,81.48
2023-04-06T10:00:09.940Z,81.44
2023-04-06T10:02:21.236Z,78.57
2023-04-06T10:04:36.453Z,76.67
2023-04-06T10:06:43.122Z,76.88
2023-04-06T10:08:50.042Z,76.85
2023-04-06T10:10:54.675Z,76.27
2023-04-06T10:12:59.866Z,76.07
2023-04-06T10:15:04.217Z,76.50
2023-04-06T10:17:08.180Z,76.08
2023-04-06T10:19:19.205Z,76.08
2023-04-06T10:21:24.357Z,76.28
2023-04-06T10:23:36.753Z,77.21
2023-04-06T10:25:40.832Z,77.25
2023-04-06T10:27:45.175Z,76.21
2023-04-06T10:29:52.959Z,75.46
2023-04-06T10:31:57.541Z,72.18
2023-04-06T10:34:03.791Z,70.74
2023-04-06T10:36:15.288Z,68.48
2023-04-06T10:38:23.291Z,66.31
2023-04-06T10:40:32.871Z,65.10
2023-04-06T10:42:40.557Z,65.24
2023-04-06T10:44:47.934Z,66.29
2023-04-06T10:46:59.318Z,67.11
2023-04-06T10:49:13.845Z,67.93
2023-04-06T10:51:19.860Z,68.97
2023-04-06T10:53:25.575Z,67.96
2023-04-06T10:55:32.225Z,66.04
2023-04-06T10:57:37.945Z,65.60
2023-04-06T10:59:46.043Z,64.92
2023-04-06T11:01:50.653Z,64.98
2023-04-06T11:03:57.104Z,64.30
2023-04-06T11:06:02.195Z,62.87
2023-04-06T11:08:06.590Z,61.65
2023-04-06T11:10:17.541Z,62.41
2023-04-06T11:12:26.928Z,62.23
2023-04-06T11:14:31.069Z,63.18
2023-04-06T11:16:36.101Z,62.23
2023-04-06T11:18:40.463Z,61.73
2023-04-06T11:20:50.775Z,60.30
2023-04-06T11:22:55.483Z,59.78
2023-04-06T11:27:12.505Z,60.41
2023-04-06T11:29:19.708Z,60.61
2023-04-06T11:31:28.920Z,60.86
2023-04-06T11:33:39.136Z,61.16
2023-04-06T11:35:44.623Z,62.39
2023-04-06T11:37:49.108Z,62.61
2023-04-06T11:39:55.000Z,61.33
2023-04-06T11:42:01.719Z,59.35
2023-04-06T11:44:06.609Z,59.89
2023-04-06T11:46:22.794Z,59.14
2023-04-06T11:48:29.342Z,59.00
2023-04-06T11:50:36.634Z,59.45
2023-04-06T11:52:42.732Z,60.19
2023-04-06T11:54:48.873Z,59.97
2023-04-06T11:56:53.794Z,60.30
2023-04-06T11:58:59.948Z,60.74
2023-04-06T12:01:13.134Z,60.33
2023-04-06T12:03:19.287Z,59.87
2023-04-06T12:05:25.199Z,60.02
2023-04-06T12:07:28.999Z,59.97
2023-04-06T12:09:33.107Z,59.45
2023-04-06T12:11:37.798Z,58.93
2023-04-06T12:13:42.918Z,58.84
2023-04-06T12:15:48.703Z,58.24
2023-04-06T12:17:53.277Z,56.82
2023-04-06T12:20:05.104Z,56.17
2023-04-06T12:22:12.126Z,56.40
2023-04-06T12:24:16.734Z,55.19
2023-04-06T12:26:23.136Z,55.74
2023-04-06T12:28:29.828Z,55.02
2023-04-06T12:30:35.748Z,55.45
2023-04-06T12:32:42.462Z,56.53
2023-04-06T12:34:47.284Z,56.78
2023-04-06T12:36:53.857Z,56.21
2023-04-06T12:39:02.480Z,55.71
2023-04-06T12:41:08.635Z,54.63
2023-04-06T12:43:14.354Z,54.39
2023-04-06T12:45:19.965Z,55.00
2023-04-06T12:47:25.303Z,54.58
2023-04-06T12:49:31.987Z,54.76
2023-04-06T12:51:37.920Z,55.96
2023-04-06T12:53:44.312Z,55.68
2023-04-06T12:55:48.150Z,54.93
2023-04-06T12:57:52.592Z,54.58
2023-04-06T12:59:56.806Z,53.26
2023-04-06T13:02:00.793Z,52.66
2023-04-06T13:04:05.264Z,52.40
2023-04-06T13:06:10.995Z,52.93
2023-04-06T13:08:16.589Z,53.29
2023-04-06T13:10:22.463Z,52.30
2023-04-06T13:12:27.586Z,52.98
2023-04-06T13:14:32.681Z,52.56
2023-04-06T13:16:37.777Z,52.71
2023-04-06T13:18:43.061Z,53.54
2023-04-06T13:20:49.652Z,52.94
2023-04-06T13:22:54.058Z,52.59
2023-04-06T13:24:58.730Z,53.24
2023-04-06T13:27:04.248Z,52.10
2023-04-06T13:29:08.740Z,51.81
2023-04-06T13:31:14.186Z,50.25
2023-04-06T13:33:18.469Z,50.92
2023-04-06T13:35:22.824Z,51.11
2023-04-06T13:37:27.407Z,51.10
2023-04-06T13:39:31.884Z,50.18
2023-04-06T13:41:35.681Z,50.23
2023-04-06T13:43:41.772Z,50.27
2023-04-06T13:45:52.313Z,49.93
2023-04-06T13:47:56.795Z,50.94
2023-04-06T13:50:01.418Z,50.77
2023-04-06T13:52:05.792Z,50.54
2023-04-06T13:54:10.798Z,49.84
2023-04-06T13:56:14.590Z,49.26
2023-04-06T13:58:19.077Z,48.91
2023-04-06T14:00:25.213Z,48.68
2023-04-06T14:02:29.651Z,48.96
2023-04-06T14:04:35.272Z,48.82
2023-04-06T14:06:39.891Z,48.08
2023-04-06T14:08:44.099Z,49.37
2023-04-06T14:10:48.510Z,49.09
2023-04-06T14:12:53.867Z,50.09
2023-04-06T14:14:58.177Z,50.76
2023-04-06T14:17:03.805Z,51.20
2023-04-06T14:19:08.032Z,51.66
2023-04-06T14:21:11.863Z,50.34
2023-04-06T14:23:16.803Z,51.00
2023-04-06T14:25:21.390Z,50.93
2023-04-06T14:27:26.184Z,50.79
2023-04-06T14:29:30.472Z,50.51
2023-04-06T14:31:35.138Z,50.84
2023-04-06T14:33:40.921Z,50.55
2023-04-06T14:35:45.042Z,50.25
2023-04-06T14:37:49.899Z,50.14
2023-04-06T14:39:54.330Z,50.44
2023-04-06T14:41:58.998Z,50.69
2023-04-06T14:44:04.322Z,50.53
2023-04-06T14:46:09.697Z,50.71
2023-04-06T14:48:16.020Z,49.70
2023-04-06T14:50:21.711Z,48.77
2023-04-06T14:52:31.301Z,48.58
2023-04-06T14:54:37.365Z,48.37
2023-04-06T14:56:43.369Z,48.11
2023-04-06T14:58:47.880Z,48.39
2023-04-06T15:00:58.003Z,48.93
2023-04-06T15:03:05.082Z,49.20
2023-04-06T15:05:10.675Z,49.33
2023-04-06T15:07:18.513Z,49.80
2023-04-06T15:09:23.545Z,49.93
2023-04-06T15:11:29.897Z,49.29
2023-04-06T15:13:34.503Z,49.67
2023-04-06T15:15:39.556Z,50.31
2023-04-06T15:17:43.995Z,50.25
2023-04-06T15:19:48.362Z,49.84
2023-04-06T15:21:52.693Z,49.41
2023-04-06T15:23:58.549Z,49.71
2023-04-06T15:26:03.455Z,49.43
2023-04-06T15:28:07.840Z,49.52
2023-04-06T15:30:13.193Z,49.98
2023-04-06T15:32:17.636Z,51.10
2023-04-06T15:34:22.830Z,51.98
2023-04-06T15:36:29.930Z,52.38
2023-04-06T15:38:34.498Z,53.27
2023-04-06T15:40:45.750Z,54.06
2023-04-06T15:42:49.951Z,54.79
2023-04-06T15:44:54.718Z,55.80
2023-04-06T15:46:59.043Z,56.42
2023-04-06T15:49:03.599Z,56.70
2023-04-06T15:51:08.094Z,56.00
2023-04-06T15:53:12.956Z,55.19
2023-04-06T15:55:17.626Z,54.22
2023-04-06T15:57:24.006Z,53.87
2023-04-06T15:59:28.673Z,54.34
2023-04-06T16:01:33.108Z,54.50
2023-04-06T16:03:37.869Z,54.48
2023-04-06T16:05:48.991Z,53.62
2023-04-06T16:08:04.607Z,51.46
2023-04-06T16:10:10.985Z,52.26
2023-04-06T16:12:15.796Z,51.51
2023-04-06T16:14:21.935Z,50.41
2023-04-06T16:16:26.342Z,49.78
2023-04-06T16:18:32.559Z,49.80
2023-04-06T16:20:37.622Z,50.47
2023-04-06T16:22:42.305Z,49.09
2023-04-06T16:24:46.651Z,48.46
2023-04-06T16:26:51.124Z,48.55
2023-04-06T16:28:55.526Z,49.14
2023-04-06T16:31:01.120Z,48.55
2023-04-06T16:33:05.727Z,49.78
2023-04-06T16:35:10.540Z,50.51
2023-04-06T16:37:15.000Z,51.34
2023-04-06T16:39:19.927Z,51.62
2023-04-06T16:41:24.161Z,52.21
2023-04-06T16:43:28.703Z,52.02
2023-04-06T16:45:33.057Z,52.82
2023-04-06T16:47:38.368Z,53.26
2023-04-06T16:49:42.983Z,53.89
2023-04-06T16:51:49.931Z,54.69
2023-04-06T16:53:54.753Z,55.29
2023-04-06T16:56:01.874Z,55.52
2023-04-06T16:58:06.919Z,55.61
2023-04-06T17:00:12.199Z,55.96
2023-04-06T17:02:16.560Z,55.82
2023-04-06T17:04:22.569Z,55.85
2023-04-06T17:06:27.542Z,55.71
2023-04-06T17:08:31.740Z,54.88
2023-04-06T17:10:41.517Z,54.52
2023-04-06T17:12:52.564Z,53.55
2023-04-06T17:14:57.792Z,53.64
2023-04-06T17:17:02.757Z,52.25
2023-04-06T17:19:06.751Z,52.26
2023-04-06T17:21:15.358Z,51.95
2023-04-06T17:23:21.314Z,51.34
2023-04-06T17:25:25.805Z,50.87
2023-04-06T17:27:30.732Z,51.55
2023-04-06T17:29:37.721Z,51.63
2023-04-06T17:31:41.704Z,51.47
2023-04-06T17:33:46.115Z,51.54
2023-04-06T17:35:50.276Z,51.87
2023-04-06T17:37:55.666Z,52.08
2023-04-06T17:39:59.700Z,51.99
2023-04-06T17:42:06.241Z,52.04
2023-04-06T17:44:13.418Z,52.00
2023-04-06T17:46:17.863Z,52.62
2023-04-06T17:48:21.939Z,52.54
2023-04-06T17:50:26.492Z,52.95
2023-04-06T17:52:32.236Z,53.29
2023-04-06T17:54:38.894Z,52.72
2023-04-06T17:56:43.567Z,53.24
2023-04-06T17:58:47.984Z,53.78
2023-04-06T18:00:52.186Z,53.93
2023-04-06T18:02:57.170Z,53.92
2023-04-06T18:05:00.870Z,54.21
2023-04-06T18:07:04.797Z,54.33
2023-04-06T18:09:09.550Z,53.89
2023-04-06T18:11:22.284Z,53.27
2023-04-06T18:13:29.207Z,52.35
2023-04-06T18:15:33.220Z,52.51
2023-04-06T18:17:37.069Z,52.61
2023-04-06T18:19:40.910Z,52.88
2023-04-06T18:21:44.784Z,52.80
2023-04-06T18:23:49.561Z,53.22
2023-04-06T18:25:53.575Z,53.88
2023-04-06T18:27:58.909Z,53.97
2023-04-06T18:30:02.973Z,54.11
2023-04-06T18:32:07.850Z,54.14
2023-04-06T18:34:12.476Z,54.58
2023-04-06T18:36:16.581Z,54.72
2023-04-06T18:38:22.725Z,54.78
2023-04-06T18:40:35.098Z,54.80
2023-04-06T18:42:40.015Z,54.90
2023-04-06T18:44:48.228Z,55.18
2023-04-06T18:46:54.941Z,55.29
2023-04-06T18:48:59.066Z,55.21
2023-04-06T18:51:04.712Z,55.97
2023-04-06T18:53:08.692Z,55.91
2023-04-06T18:55:12.657Z,56.38
2023-04-06T18:57:16.713Z,56.81
2023-04-06T18:59:21.851Z,56.76
2023-04-06T19:01:29.410Z,57.17
2023-04-06T19:03:38.324Z,57.55
2023-04-06T19:05:43.717Z,57.97
2023-04-06T19:07:52.883Z,57.99
2023-04-06T19:09:58.131Z,58.27
2023-04-06T19:12:02.301Z,58.85
2023-04-06T19:14:06.669Z,58.81
2023-04-06T19:16:12.734Z,59.16
2023-04-06T19:18:18.602Z,59.42
2023-04-06T19:20:22.258Z,60.06
2023-04-06T19:22:26.253Z,59.84
2023-04-06T19:24:30.190Z,60.57
2023-04-06T19:26:34.414Z,60.90
2023-04-06T19:28:38.210Z,60.73
2023-04-06T19:30:42.938Z,61.54
2023-04-06T19:32:47.905Z,61.36
2023-04-06T19:34:53.153Z,61.85
2023-04-06T19:36:57.464Z,62.06
2023-04-06T19:39:01.553Z,62.58
2023-04-06T19:41:05.485Z,62.49
2023-04-06T19:43:09.482Z,62.81
2023-04-06T19:45:14.710Z,63.64
2023-04-06T19:47:20.411Z,64.09
2023-04-06T19:49:23.946Z,64.38
2023-04-06T19:51:33.746Z,64.78
2023-04-06T19:53:37.985Z,65.36
2023-04-06T19:55:41.704Z,65.28
2023-04-06T19:57:46.549Z,66.00
2023-04-06T19:59:51.462Z,66.58
2023-04-06T20:01:55.919Z,66.54
2023-04-06T20:04:00.269Z,66.43
2023-04-06T20:06:04.353Z,67.29
2023-04-06T20:08:10.567Z,68.46
2023-04-06T20:10:16.171Z,68.26
2023-04-06T20:12:19.989Z,69.05
2023-04-06T20:14:24.325Z,69.33
2023-04-06T20:16:28.752Z,69.31
2023-04-06T20:18:33.078Z,69.34
2023-04-06T20:20:37.052Z,69.58
2023-04-06T20:22:41.367Z,69.82
2023-04-06T20:24:46.700Z,69.68
2023-04-06T20:26:50.893Z,70.22
2023-04-06T20:28:54.854Z,70.37
2023-04-06T20:30:59.182Z,70.38
2023-04-06T20:33:04.243Z,71.58
2023-04-06T20:35:09.681Z,71.23
2023-04-06T20:37:14.298Z,70.67
2023-04-06T20:39:20.160Z,71.29
2023-04-06T20:41:26.276Z,71.06
2023-04-06T20:43:31.032Z,71.35
2023-04-06T20:45:39.921Z,71.30
2023-04-06T20:47:45.701Z,71.03
2023-04-06T20:49:49.996Z,71.30
2023-04-06T20:51:54.304Z,71.54
2023-04-06T20:53:58.493Z,71.84
2023-04-06T20:56:03.221Z,72.87
2023-04-06T20:58:09.826Z,72.78
2023-04-06T21:00:15.519Z,72.91
2023-04-06T21:02:20.217Z,73.54
2023-04-06T21:04:25.898Z,73.64
2023-04-06T21:06:32.447Z,73.64
2023-04-06T21:08:36.467Z,73.69
2023-04-06T21:10:40.335Z,73.62
2023-04-06T21:12:46.446Z,74.01
2023-04-06T21:14:51.888Z,73.49
2023-04-06T21:16:56.424Z,73.78
2023-04-06T21:19:00.665Z,74.38
2023-04-06T21:21:04.529Z,74.20
2023-04-06T21:23:08.806Z,74.02
2023-04-06T21:25:13.819Z,74.92
2023-04-06T21:27:18.220Z,75.33
2023-04-06T21:29:22.876Z,76.23
2023-04-06T21:31:28.892Z,76.64
2023-04-06T21:33:32.632Z,76.07
2023-04-06T21:35:40.372Z,76.30
2023-04-06T21:37:43.846Z,76.15
2023-04-06T21:39:47.599Z,76.40
2023-04-06T21:41:51.377Z,76.12
2023-04-06T21:43:55.119Z,76.86
2023-04-06T21:45:59.259Z,76.36
2023-04-06T21:48:05.692Z,76.74
2023-04-06T21:50:10.875Z,76.41
2023-04-06T21:52:14.727Z,77.96
2023-04-06T21:54:21.772Z,76.30
2023-04-06T21:56:26.533Z,76.84
2023-04-06T21:58:30.448Z,78.07
2023-04-06T22:00:34.234Z,78.28
2023-04-06T22:02:39.184Z,77.60
2023-04-06T22:04:45.053Z,78.29
2023-04-06T22:06:49.005Z,78.21
2023-04-06T22:08:53.307Z,78.28
2023-04-06T22:10:57.901Z,77.78
2023-04-06T22:13:02.204Z,78.42
2023-04-06T22:15:06.886Z,78.37
2023-04-06T22:17:10.676Z,78.58
2023-04-06T22:19:14.650Z,78.20
2023-04-06T22:21:20.411Z,79.00
2023-04-06T22:23:24.618Z,78.65
2023-04-06T22:25:29.405Z,78.56
2023-04-06T22:27:33.339Z,78.45
2023-04-06T22:29:36.853Z,77.77
2023-04-06T22:31:40.825Z,77.62
2023-04-06T22:33:44.683Z,77.99
2023-04-06T22:35:48.444Z,78.38
2023-04-06T22:37:53.557Z,77.98
2023-04-06T22:39:57.592Z,77.84
2023-04-06T22:42:01.322Z,77.86
2023-04-06T22:44:05.145Z,77.55
2023-04-06T22:46:08.868Z,78.18
2023-04-06T22:48:12.721Z,78.62
2023-04-06T22:50:16.642Z,77.92
2023-04-06T22:52:20.022Z,78.06
2023-04-06T22:54:25.186Z,77.78
2023-04-06T22:56:28.931Z,78.51
2023-04-06T22:58:32.776Z,78.58
2023-04-06T23:00:36.597Z,79.25
2023-04-06T23:02:41.174Z,78.81
2023-04-06T23:04:46.535Z,79.18
2023-04-06T23:06:50.859Z,79.67
2023-04-06T23:08:54.913Z,80.43
2023-04-06T23:10:59.719Z,80.50
2023-04-06T23:13:02.996Z,81.47
2023-04-06T23:15:07.070Z,81.01
2023-04-06T23:17:10.794Z,81.05
2023-04-06T23:19:14.605Z,81.04
2023-04-06T23:21:17.922Z,81.19
2023-04-06T23:23:21.840Z,81.47
2023-04-06T23:25:25.570Z,81.42
2023-04-06T23:27:31.928Z,81.29
2023-04-06T23:29:35.478Z,81.62
2023-04-06T23:31:38.815Z,81.83
2023-04-06T23:33:42.174Z,81.73
2023-04-06T23:35:45.513Z,81.92
2023-04-06T23:37:48.816Z,82.17
2023-04-06T23:39:52.096Z,81.64
2023-04-06T23:41:55.923Z,81.88
2023-04-06T23:44:00.661Z,81.63
2023-04-06T23:46:04.168Z,81.86
2023-04-06T23:48:08.065Z,81.55
2023-04-06T23:50:12.074Z,81.58
2023-04-06T23:52:15.632Z,82.13
2023-04-06T23:54:18.994Z,82.85
2023-04-06T23:56:22.255Z,83.15
2023-04-06T23:58:25.538Z,83.28
